Time;durP1;ratioP1;P1;durP2;ratioP2;P2;SDS_P1;SDS_P2;PMS_P1;PMS_P2;Temp;Humidity;BMP_temperature;BMP_pressure;BME280_temperature;BME280_humidity;BME280_pressure;Samples;Min_cycle;Max_cycle;Signal;HPM_P1;HPM_P2
2022/01/03 00:00:53;;;;;;;2.10;0.77;;;13.90;86.00;;;;;;10039211;28;20302;-60
2022/01/03 00:05:43;;;;;;;1.00;0.77;;;13.90;86.00;;;;;;10044138;28;20033;-60
2022/01/03 00:10:35;;;;;;;4.70;1.08;;;13.90;85.80;;;;;;10042986;28;20107;-60
2022/01/03 00:15:27;;;;;;;3.22;0.90;;;13.90;85.90;;;;;;10040573;28;20469;-61
2022/01/03 00:20:17;;;;;;;1.27;0.70;;;13.90;85.70;;;;;;10031159;28;20044;-60
2022/01/03 00:25:18;;;;;;;4.30;1.15;;;13.90;85.70;;;;;;10027830;28;20034;-59
2022/01/03 00:30:10;;;;;;;2.47;0.80;;;13.90;85.50;;;;;;10041116;28;20049;-60
2022/01/03 00:35:03;;;;;;;2.25;0.90;;;13.90;85.60;;;;;;10031687;28;20421;-59
2022/01/03 00:39:55;;;;;;;7.68;1.77;;;13.90;85.60;;;;;;10049944;28;20033;-61
2022/01/03 00:44:46;;;;;;;5.40;0.82;;;13.80;85.50;;;;;;10052584;28;20029;-60
2022/01/03 00:49:40;;;;;;;4.18;1.42;;;13.80;85.70;;;;;;10054587;28;20545;-60
2022/01/03 00:54:31;;;;;;;4.35;1.13;;;13.90;85.60;;;;;;10053548;28;20080;-63
2022/01/03 00:59:36;;;;;;;2.30;0.90;;;13.80;85.60;;;;;;10052883;28;20515;-61
2022/01/03 01:04:28;;;;;;;2.27;1.30;;;13.80;85.60;;;;;;10050500;28;20146;-61
2022/01/03 01:09:20;;;;;;;3.75;0.88;;;13.80;85.70;;;;;;10018180;28;20760;-60
2022/01/03 01:14:12;;;;;;;1.60;0.88;;;13.70;85.80;;;;;;10037453;28;20340;-58
2022/01/03 01:19:04;;;;;;;1.17;0.80;;;13.70;85.90;;;;;;10053132;28;20030;-60
2022/01/03 01:23:57;;;;;;;7.70;1.48;;;13.70;85.70;;;;;;10050025;28;20026;-60
2022/01/03 01:28:47;;;;;;;3.30;1.33;;;13.80;85.80;;;;;;10051172;28;20068;-63
2022/01/03 01:33:41;;;;;;;1.83;1.00;;;13.80;85.80;;;;;;10052533;28;20033;-58
2022/01/03 01:38:34;;;;;;;4.03;1.55;;;13.80;85.80;;;;;;10033010;28;20512;-63
2022/01/03 01:43:35;;;;;;;1.25;0.75;;;13.80;86.40;;;;;;10048966;28;20444;-64
2022/01/03 01:48:26;;;;;;;0.77;0.60;;;13.70;85.90;;;;;;10048119;28;20080;-65
2022/01/03 01:53:23;;;;;;;3.92;0.80;;;13.60;86.10;;;;;;10046952;28;20091;-59
2022/01/03 01:58:21;;;;;;;1.98;1.15;;;13.60;86.20;;;;;;10049023;28;20397;-59
2022/01/03 02:03:47;;;;;;;1.33;0.70;;;13.60;86.20;;;;;;10047719;28;20041;-62
2022/01/03 02:08:44;;;;;;;3.85;1.70;;;13.60;86.30;;;;;;10048982;28;20037;-62
2022/01/03 02:13:36;;;;;;;3.80;0.80;;;13.60;86.40;;;;;;10048469;28;20033;-64
2022/01/03 02:18:27;;;;;;;1.33;0.60;;;13.50;86.40;;;;;;10051559;28;20065;-59
2022/01/03 02:23:17;;;;;;;3.88;0.88;;;13.50;86.50;;;;;;10049218;28;20507;-64
2022/01/03 02:28:08;;;;;;;3.42;0.80;;;13.50;86.60;;;;;;10045265;28;20036;-59
2022/01/03 02:32:59;;;;;;;3.50;1.00;;;13.40;86.60;;;;;;10054637;28;20434;-59
2022/01/03 02:37:51;;;;;;;6.50;1.00;;;13.30;86.50;;;;;;10048651;28;20044;-61
2022/01/03 02:42:42;;;;;;;3.45;0.90;;;13.30;86.50;;;;;;10051663;28;20472;-60
2022/01/03 02:47:33;;;;;;;3.55;0.98;;;13.20;86.40;;;;;;10047159;28;20116;-60
2022/01/03 02:52:25;;;;;;;7.15;1.10;;;13.20;86.30;;;;;;10048315;28;20550;-61
2022/01/03 02:57:16;;;;;;;1.40;0.85;;;13.20;86.10;;;;;;10033096;28;20052;-60
2022/01/03 03:02:06;;;;;;;2.67;0.95;;;13.10;86.10;;;;;;10046317;28;20124;-61
2022/01/03 03:06:57;;;;;;;4.63;2.45;;;13.10;86.10;;;;;;10048038;28;20101;-61
2022/01/03 03:11:48;;;;;;;6.40;1.20;;;13.00;86.10;;;;;;10034166;28;20041;-60
2022/01/03 03:16:40;;;;;;;3.17;1.58;;;13.00;86.20;;;;;;10045827;28;20045;-59
2022/01/03 03:21:31;;;;;;;4.72;1.30;;;13.00;86.20;;;;;;10053351;28;20335;-60
2022/01/03 03:26:22;;;;;;;1.60;0.80;;;12.90;86.20;;;;;;10046071;28;20428;-59
2022/01/03 03:31:12;;;;;;;5.25;1.52;;;12.90;86.30;;;;;;10054413;28;20025;-59
2022/01/03 03:36:04;;;;;;;1.95;0.73;;;12.90;86.30;;;;;;10041581;28;20081;-59
2022/01/03 03:40:59;;;;;;;3.50;1.02;;;12.90;86.20;;;;;;10041469;28;20029;-60
2022/01/03 03:45:51;;;;;;;6.18;1.13;;;12.90;86.00;;;;;;10046657;28;20060;-59
2022/01/03 03:50:42;;;;;;;3.40;0.90;;;12.90;85.80;;;;;;10044836;28;20503;-60
2022/01/03 03:55:33;;;;;;;4.32;1.15;;;13.00;85.70;;;;;;10048133;28;20115;-60
2022/01/03 04:00:25;;;;;;;2.15;0.70;;;13.00;85.50;;;;;;10028115;28;20046;-60
2022/01/03 04:05:16;;;;;;;1.77;0.90;;;12.90;85.40;;;;;;10047529;28;20460;-60
2022/01/03 04:10:09;;;;;;;4.85;1.13;;;12.90;85.50;;;;;;10042201;28;20129;-60
2022/01/03 04:15:00;;;;;;;3.22;1.17;;;12.90;85.50;;;;;;10049172;28;20518;-60
2022/01/03 04:19:51;;;;;;;7.00;0.93;;;12.80;85.60;;;;;;10054365;28;20079;-59
2022/01/03 04:24:41;;;;;;;5.40;1.02;;;12.80;85.50;;;;;;10050419;28;20315;-59
2022/01/03 04:29:32;;;;;;;3.17;0.75;;;12.70;85.50;;;;;;10058069;28;20104;-59
2022/01/03 04:34:23;;;;;;;2.90;1.13;;;12.70;85.60;;;;;;10052894;28;20030;-60
2022/01/03 04:39:14;;;;;;;4.07;1.00;;;12.60;85.70;;;;;;10050360;28;20025;-59
2022/01/03 04:44:05;;;;;;;2.42;0.70;;;12.60;85.70;;;;;;10054537;28;20116;-58
2022/01/03 04:48:56;;;;;;;3.30;0.90;;;12.60;85.70;;;;;;10051052;28;20411;-59
2022/01/03 04:53:46;;;;;;;1.65;0.73;;;12.60;85.70;;;;;;10048066;28;20033;-59
2022/01/03 04:58:38;;;;;;;2.38;1.10;;;12.50;85.70;;;;;;10054743;28;20576;-61
2022/01/03 05:03:29;;;;;;;5.97;0.90;;;12.50;85.80;;;;;;10055192;28;20025;-59
2022/01/03 05:08:19;;;;;;;9.02;2.05;;;12.60;85.90;;;;;;10052675;28;20037;-60
2022/01/03 05:13:10;;;;;;;3.60;1.25;;;12.60;86.00;;;;;;10049959;28;20025;-59
2022/01/03 05:18:01;;;;;;;2.38;0.68;;;12.60;86.00;;;;;;10052222;28;20052;-62
2022/01/03 05:22:51;;;;;;;6.82;1.20;;;12.70;86.00;;;;;;10032389;28;20021;-62
2022/01/03 05:27:42;;;;;;;4.05;1.00;;;12.70;86.00;;;;;;10060985;28;20510;-60
2022/01/03 05:32:33;;;;;;;4.18;1.10;;;12.70;86.10;;;;;;10049361;28;20469;-60
2022/01/03 05:37:24;;;;;;;1.10;0.90;;;12.80;86.10;;;;;;10046820;28;20460;-61
2022/01/03 05:42:14;;;;;;;3.72;1.20;;;12.90;86.10;;;;;;10053231;28;20030;-58
2022/01/03 05:47:05;;;;;;;3.20;1.10;;;12.90;86.00;;;;;;10046053;28;20040;-58
2022/01/03 05:51:56;;;;;;;2.25;0.77;;;13.00;86.10;;;;;;10051887;28;20030;-60
2022/01/03 05:56:47;;;;;;;2.88;0.88;;;13.00;86.10;;;;;;10050230;28;20052;-58
2022/01/03 06:01:38;;;;;;;9.20;1.35;;;13.00;86.00;;;;;;10051607;28;20037;-60
2022/01/03 06:06:53;;;;;;;3.45;1.23;;;13.00;85.90;;;;;;10048019;28;20021;-61
2022/01/03 06:11:42;;;;;;;10.20;1.65;;;13.00;86.00;;;;;;10051522;28;20033;-59
2022/01/03 06:16:33;;;;;;;4.43;1.10;;;13.10;85.80;;;;;;10048862;28;20072;-58
2022/01/03 06:21:23;;;;;;;3.58;0.90;;;13.10;85.80;;;;;;10048878;28;20578;-59
2022/01/03 06:26:14;;;;;;;2.90;1.30;;;13.10;85.70;;;;;;10052974;28;20470;-60
2022/01/03 06:31:05;;;;;;;2.42;0.60;;;13.10;85.50;;;;;;10046412;28;20117;-62
2022/01/03 06:35:56;;;;;;;3.85;0.68;;;13.20;85.60;;;;;;10050551;28;20051;-60
2022/01/03 06:40:46;;;;;;;2.10;1.63;;;13.10;85.50;;;;;;10050727;28;20129;-59
2022/01/03 06:45:37;;;;;;;5.57;1.95;;;13.10;85.40;;;;;;10050331;28;20388;-61
2022/01/03 06:50:30;;;;;;;3.28;1.30;;;13.10;85.50;;;;;;10046019;28;20014;-59
2022/01/03 06:55:21;;;;;;;3.05;0.82;;;13.10;85.40;;;;;;10050284;28;20053;-59
2022/01/03 07:00:12;;;;;;;1.90;0.80;;;13.10;85.30;;;;;;10048913;28;20053;-62
2022/01/03 07:05:03;;;;;;;1.38;0.75;;;13.10;85.30;;;;;;10045274;28;20112;-59
2022/01/03 07:09:54;;;;;;;3.90;1.80;;;13.10;85.90;;;;;;10046411;28;20116;-60
2022/01/03 07:19:35;;;;;;;3.17;1.35;;;13.10;85.10;;;;;;10044382;28;20029;-59
2022/01/03 07:24:26;;;;;;;2.38;0.85;;;13.20;84.70;;;;;;10050684;28;20028;-59
2022/01/03 07:29:17;;;;;;;3.80;1.08;;;13.20;84.80;;;;;;10043615;28;20395;-57
2022/01/03 07:34:08;;;;;;;2.95;1.10;;;13.20;84.70;;;;;;10045640;28;20089;-61
2022/01/03 07:38:59;;;;;;;1.35;0.90;;;13.20;84.60;;;;;;10048216;28;20048;-60
2022/01/03 07:43:50;;;;;;;2.95;0.73;;;13.20;84.50;;;;;;10049382;28;20041;-61
2022/01/03 07:48:40;;;;;;;4.75;1.38;;;13.20;84.30;;;;;;10045721;28;20026;-57
2022/01/03 07:53:31;;;;;;;5.68;1.33;;;13.20;84.30;;;;;;10047234;28;20455;-60
2022/01/03 07:58:22;;;;;;;3.65;0.70;;;13.20;84.20;;;;;;10028538;28;20045;-64
2022/01/03 08:03:13;;;;;;;2.15;1.25;;;13.20;83.70;;;;;;10047276;28;20511;-61
2022/01/03 08:08:08;;;;;;;2.30;0.85;;;13.20;84.00;;;;;;10049027;28;20026;-60
2022/01/03 08:12:59;;;;;;;4.43;0.90;;;13.20;84.00;;;;;;10047682;28;20407;-62
2022/01/03 08:17:50;;;;;;;5.63;1.60;;;13.20;83.90;;;;;;10043147;28;20045;-60
2022/01/03 08:22:40;;;;;;;2.20;1.00;;;13.30;84.00;;;;;;10046725;28;20041;-61
2022/01/03 08:27:31;;;;;;;6.70;1.20;;;13.20;83.90;;;;;;10047601;28;20346;-60
2022/01/03 08:32:22;;;;;;;2.03;1.42;;;13.30;83.70;;;;;;10047768;28;20053;-61
2022/01/03 08:37:12;;;;;;;2.38;0.90;;;13.40;83.70;;;;;;10046282;28;20338;-61
2022/01/03 08:42:04;;;;;;;4.18;0.90;;;13.40;83.50;;;;;;10048635;28;20041;-60
2022/01/03 08:46:54;;;;;;;1.88;1.02;;;13.40;83.10;;;;;;10047820;28;20108;-60
2022/01/03 08:51:45;;;;;;;2.20;0.80;;;13.50;83.20;;;;;;10046570;28;20035;-60
2022/01/03 08:56:38;;;;;;;1.83;0.73;;;13.50;83.30;;;;;;10046601;28;20075;-62
2022/01/03 09:01:29;;;;;;;5.80;1.08;;;13.50;83.50;;;;;;10046755;28;20415;-62
2022/01/03 09:06:20;;;;;;;4.95;1.90;;;13.50;83.70;;;;;;10054064;28;20037;-65
2022/01/03 09:11:11;;;;;;;3.72;1.10;;;13.50;83.90;;;;;;10040770;28;20041;-61
2022/01/03 09:16:06;;;;;;;3.65;1.25;;;13.50;83.90;;;;;;10052017;28;20041;-64
2022/01/03 09:20:57;;;;;;;2.55;1.02;;;13.60;83.80;;;;;;10060848;28;20068;-65
2022/01/03 09:30:57;;;;;;;4.75;1.20;;;13.60;84.00;;;;;;10048566;28;20538;-64
2022/01/03 09:35:50;;;;;;;2.63;1.48;;;13.70;84.00;;;;;;10052263;28;20040;-66
2022/01/03 09:40:41;;;;;;;2.30;0.77;;;13.70;84.00;;;;;;10048249;28;20128;-64
2022/01/03 09:45:32;;;;;;;1.63;0.90;;;13.60;84.10;;;;;;10054482;28;20503;-65
2022/01/03 09:50:23;;;;;;;2.42;1.08;;;13.70;84.10;;;;;;10051329;28;20026;-64
2022/01/03 09:55:19;;;;;;;2.40;1.52;;;13.70;84.10;;;;;;10051441;28;20226;-66
2022/01/03 10:00:10;;;;;;;3.85;1.10;;;13.80;84.00;;;;;;10052431;28;20045;-65
2022/01/03 10:05:01;;;;;;;2.20;0.70;;;13.90;83.90;;;;;;10049756;28;20164;-63
2022/01/03 10:09:55;;;;;;;3.10;1.45;;;13.90;83.90;;;;;;10050372;28;20162;-63
2022/01/03 10:14:45;;;;;;;4.03;1.00;;;13.90;83.90;;;;;;10047271;28;20033;-62
2022/01/03 10:19:56;;;;;;;10.82;1.42;;;13.90;83.90;;;;;;10054071;28;20034;-62
2022/01/03 10:24:47;;;;;;;2.53;1.02;;;13.90;84.20;;;;;;10051848;28;20126;-64
2022/01/03 10:29:40;;;;;;;4.60;1.08;;;14.00;83.40;;;;;;10049379;28;20495;-64
2022/01/03 10:34:32;;;;;;;6.47;1.25;;;14.10;83.60;;;;;;10046082;28;20029;-62
2022/01/03 10:39:25;;;;;;;2.88;0.73;;;14.10;82.80;;;;;;10050169;28;20025;-61
2022/01/03 10:44:37;;;;;;;2.33;1.60;;;14.20;82.50;;;;;;10047598;28;20021;-62
2022/01/03 10:49:28;;;;;;;3.95;0.75;;;14.20;81.30;;;;;;10049177;28;20020;-65
2022/01/03 10:54:19;;;;;;;4.80;1.08;;;14.20;81.70;;;;;;10048293;28;20080;-64
2022/01/03 10:59:15;;;;;;;5.47;1.75;;;14.20;81.80;;;;;;10049070;28;20049;-62
2022/01/03 11:04:07;;;;;;;4.05;1.23;;;14.20;81.90;;;;;;10048988;28;20034;-61
2022/01/03 11:14:08;;;;;;;3.47;1.40;;;14.30;81.50;;;;;;10047306;28;20344;-61
2022/01/03 11:18:59;;;;;;;2.47;0.85;;;14.30;82.00;;;;;;10050097;28;20504;-60
2022/01/03 11:24:12;;;;;;;4.25;1.38;;;14.10;82.60;;;;;;10049885;28;20068;-61
2022/01/03 11:29:04;;;;;;;5.15;1.25;;;14.10;83.00;;;;;;10047462;28;20033;-63
2022/01/03 11:33:56;;;;;;;1.85;1.00;;;14.20;83.10;;;;;;10048971;28;20021;-62
2022/01/03 11:38:48;;;;;;;1.52;1.20;;;14.30;83.00;;;;;;10048635;28;20037;-62
2022/01/03 11:43:41;;;;;;;2.33;1.52;;;14.20;83.10;;;;;;10037351;28;20503;-63
2022/01/03 11:48:33;;;;;;;3.42;1.20;;;14.20;83.40;;;;;;10048619;28;20561;-65
2022/01/03 11:53:24;;;;;;;6.10;1.80;;;14.20;83.40;;;;;;10046860;28;20060;-64
2022/01/03 11:58:27;;;;;;;4.40;1.30;;;14.30;83.20;;;;;;10048652;28;20541;-62
2022/01/03 12:03:37;;;;;;;4.63;1.15;;;14.30;83.20;;;;;;10043282;28;20036;-62
2022/01/03 12:08:33;;;;;;;3.70;1.13;;;14.20;83.20;;;;;;10051298;28;20500;-62
2022/01/03 12:13:48;;;;;;;2.65;1.08;;;14.10;83.20;;;;;;10024448;28;20574;-65
2022/01/03 12:18:54;;;;;;;3.28;1.40;;;14.10;83.30;;;;;;10049416;28;20044;-64
2022/01/03 12:23:46;;;;;;;1.77;1.50;;;14.10;83.30;;;;;;10043607;28;20038;-64
2022/01/03 12:29:09;;;;;;;5.50;1.90;;;14.00;83.20;;;;;;10043420;28;20029;-63
2022/01/03 12:34:18;;;;;;;3.75;1.27;;;14.00;83.10;;;;;;10044845;28;20053;-64
2022/01/03 12:39:09;;;;;;;1.13;0.80;;;13.90;83.20;;;;;;10054423;28;20435;-64
2022/01/03 12:44:00;;;;;;;3.33;1.10;;;13.90;83.40;;;;;;10052811;28;20030;-64
2022/01/03 12:48:51;;;;;;;5.05;1.67;;;13.90;83.50;;;;;;10037288;28;20073;-65
2022/01/03 12:53:49;;;;;;;3.45;1.40;;;13.90;83.40;;;;;;10049456;28;20034;-64
2022/01/03 12:58:51;;;;;;;2.10;0.88;;;13.80;83.50;;;;;;10034942;28;20123;-64
2022/01/03 13:03:50;;;;;;;4.57;1.58;;;13.80;83.70;;;;;;10052258;28;20063;-65
2022/01/03 13:08:42;;;;;;;3.28;1.08;;;13.80;83.80;;;;;;10029733;28;20037;-65
2022/01/03 13:13:33;;;;;;;2.83;1.30;;;13.90;83.50;;;;;;10053063;28;20388;-65
2022/01/03 13:18:24;;;;;;;2.83;1.38;;;13.90;83.40;;;;;;10036867;28;20045;-67
2022/01/03 13:23:18;;;;;;;3.15;0.85;;;14.10;83.20;;;;;;10051469;28;20079;-65
2022/01/03 13:28:12;;;;;;;4.50;1.98;;;14.20;83.00;;;;;;10054079;28;20029;-65
2022/01/03 13:33:02;;;;;;;2.88;1.30;;;14.40;82.50;;;;;;10053667;28;20022;-65
2022/01/03 13:37:53;;;;;;;3.35;1.10;;;14.30;82.70;;;;;;10055486;28;20037;-64
2022/01/03 13:42:59;;;;;;;3.55;1.60;;;14.30;83.10;;;;;;10053028;28;20029;-67
2022/01/03 13:53:06;;;;;;;2.22;1.38;;;14.10;83.70;;;;;;10050465;28;20574;-65
2022/01/03 13:58:06;;;;;;;2.97;1.27;;;14.00;84.00;;;;;;10051865;28;20160;-64
2022/01/03 14:02:57;;;;;;;3.03;1.90;;;13.90;84.20;;;;;;10052665;28;20197;-62
2022/01/03 14:07:57;;;;;;;4.50;2.00;;;13.90;84.40;;;;;;10053169;28;20032;-66
2022/01/03 14:12:54;;;;;;;4.82;2.40;;;14.00;84.60;;;;;;10052578;28;20048;-65
2022/01/03 14:17:50;;;;;;;3.42;2.13;;;13.90;84.60;;;;;;10052699;28;20046;-67
2022/01/03 14:22:41;;;;;;;;;;;13.90;84.70;;;;;;10054536;28;20139;-68
2022/01/03 14:27:46;;;;;;;4.30;1.63;;;13.80;85.30;;;;;;10050809;28;20335;-66
2022/01/03 14:32:39;;;;;;;4.28;1.52;;;13.70;85.20;;;;;;10050264;28;20132;-67
2022/01/03 14:37:32;;;;;;;2.95;1.50;;;13.70;86.00;;;;;;10052045;28;20037;-68
2022/01/03 14:42:27;;;;;;;6.45;1.17;;;13.70;85.50;;;;;;10051872;28;20112;-66
2022/01/03 14:47:26;;;;;;;4.32;1.63;;;13.60;85.60;;;;;;10051742;28;20041;-67
2022/01/03 14:52:16;;;;;;;3.95;1.23;;;13.70;85.70;;;;;;10030254;28;20163;-68
2022/01/03 14:57:27;;;;;;;3.33;1.20;;;13.60;85.80;;;;;;10031119;28;20045;-70
2022/01/03 15:02:17;;;;;;;2.50;1.73;;;13.50;86.00;;;;;;10054589;28;20026;-68
2022/01/03 15:07:10;;;;;;;3.72;1.67;;;13.50;86.00;;;;;;10055174;28;20187;-68
2022/01/03 15:12:00;;;;;;;2.78;1.30;;;13.50;86.20;;;;;;10033192;28;20057;-64
2022/01/03 15:16:51;;;;;;;2.05;1.48;;;13.40;86.40;;;;;;10056299;28;20057;-67
2022/01/03 15:21:43;;;;;;;4.93;1.77;;;13.40;86.30;;;;;;10065701;28;20021;-64
2022/01/03 15:26:34;;;;;;;5.03;1.98;;;13.40;86.40;;;;;;10038906;28;20373;-65
2022/01/03 15:31:25;;;;;;;2.80;1.50;;;13.40;86.60;;;;;;10049772;28;20030;-63
2022/01/03 15:36:15;;;;;;;2.78;1.30;;;13.40;86.80;;;;;;10057358;28;20519;-66
2022/01/03 15:41:06;;;;;;;2.38;1.30;;;13.30;87.00;;;;;;10049259;28;20553;-63
2022/01/03 15:46:01;;;;;;;6.70;1.23;;;13.30;87.00;;;;;;10044565;28;20131;-64
2022/01/03 15:50:51;;;;;;;1.52;1.00;;;13.30;87.20;;;;;;10028659;28;20049;-65
2022/01/03 15:55:42;;;;;;;3.25;1.40;;;13.20;87.40;;;;;;10049257;28;20510;-65
2022/01/03 16:00:34;;;;;;;4.30;1.40;;;13.20;87.40;;;;;;10009590;28;20916;-64
2022/01/03 16:05:25;;;;;;;4.05;1.42;;;13.20;87.60;;;;;;10015241;28;20157;-64
2022/01/03 16:10:15;;;;;;;4.10;1.92;;;13.10;87.80;;;;;;10000778;28;20269;-64
2022/01/03 16:15:07;;;;;;;2.28;1.17;;;13.20;87.80;;;;;;9986240;28;20116;-65
2022/01/03 16:19:58;;;;;;;5.82;1.23;;;13.20;87.80;;;;;;10001624;28;20034;-64
2022/01/03 16:24:49;;;;;;;2.63;1.25;;;13.20;87.80;;;;;;10003435;28;20030;-63
2022/01/03 16:29:39;;;;;;;1.50;1.17;;;13.10;87.80;;;;;;10007000;28;20068;-66
2022/01/03 16:34:31;;;;;;;3.42;1.48;;;13.10;87.80;;;;;;10002412;28;20041;-65
2022/01/03 16:39:23;;;;;;;3.22;1.55;;;13.20;87.80;;;;;;9992392;28;20052;-67
2022/01/03 16:44:14;;;;;;;2.22;1.10;;;13.10;87.80;;;;;;10010073;28;20451;-64
2022/01/03 16:49:05;;;;;;;4.65;1.13;;;13.20;87.60;;;;;;10016381;28;20861;-64
2022/01/03 16:53:56;;;;;;;5.18;1.45;;;13.20;87.70;;;;;;10013409;28;20367;-63
2022/01/03 16:58:47;;;;;;;1.83;1.02;;;13.10;87.70;;;;;;10034759;28;20053;-63
2022/01/03 17:03:38;;;;;;;1.80;1.33;;;13.10;87.90;;;;;;10049159;28;20078;-64
2022/01/03 17:08:28;;;;;;;3.08;1.83;;;13.10;87.90;;;;;;10046382;28;20025;-64
2022/01/03 17:13:19;;;;;;;3.13;1.20;;;13.10;88.00;;;;;;10065502;28;20025;-66
2022/01/03 17:18:10;;;;;;;4.10;1.08;;;13.10;88.00;;;;;;10050370;28;20072;-65
2022/01/03 17:23:01;;;;;;;3.58;1.33;;;13.10;88.30;;;;;;10053406;28;20025;-66
2022/01/03 17:27:53;;;;;;;1.25;0.95;;;13.00;88.30;;;;;;10068407;28;20048;-65
2022/01/03 17:32:44;;;;;;;1.92;0.80;;;12.90;88.30;;;;;;10059453;28;20017;-63
2022/01/03 17:37:34;;;;;;;4.70;1.17;;;13.00;88.30;;;;;;10054286;28;20037;-64
2022/01/03 17:42:25;;;;;;;3.35;0.98;;;12.90;88.30;;;;;;10029567;28;20021;-62
2022/01/03 17:47:20;;;;;;;2.15;1.08;;;12.80;88.40;;;;;;10054503;28;20035;-64
2022/01/03 17:52:10;;;;;;;2.00;1.33;;;12.80;88.50;;;;;;10051982;28;20026;-66
2022/01/03 17:57:01;;;;;;;2.42;1.15;;;12.80;88.70;;;;;;10043823;28;20049;-64
2022/01/03 18:01:52;;;;;;;3.17;1.23;;;12.80;88.80;;;;;;10070035;28;20041;-68
2022/01/03 18:06:43;;;;;;;6.30;1.58;;;12.70;88.80;;;;;;10071221;28;20119;-68
2022/01/03 18:11:34;;;;;;;2.35;1.08;;;12.80;88.70;;;;;;10055193;28;20196;-68
2022/01/03 18:16:24;;;;;;;2.80;1.38;;;12.70;88.60;;;;;;10070871;28;20033;-68
2022/01/03 18:21:16;;;;;;;4.50;1.38;;;12.70;88.60;;;;;;10070204;28;20026;-68
2022/01/03 18:26:06;;;;;;;1.65;1.10;;;12.70;88.80;;;;;;10072021;28;20160;-68
2022/01/03 18:30:57;;;;;;;2.50;1.10;;;12.60;89.00;;;;;;10075280;28;20081;-68
2022/01/03 18:35:48;;;;;;;2.60;1.30;;;12.60;89.00;;;;;;10068658;28;20037;-68
2022/01/03 18:40:39;;;;;;;2.90;1.08;;;12.60;89.00;;;;;;10072510;28;20045;-69
2022/01/03 18:45:31;;;;;;;2.30;1.00;;;12.60;89.10;;;;;;10068315;28;20038;-69
2022/01/03 18:50:22;;;;;;;3.88;1.52;;;12.60;89.00;;;;;;10074770;28;20025;-68
2022/01/03 18:55:13;;;;;;;1.83;1.13;;;12.70;88.90;;;;;;10055456;28;20042;-68
2022/01/03 19:00:06;;;;;;;3.42;1.00;;;12.70;88.90;;;;;;10075174;28;20358;-68
2022/01/03 19:04:57;;;;;;;1.55;1.08;;;12.70;89.00;;;;;;10073408;28;20053;-67
2022/01/03 19:09:48;;;;;;;2.17;1.33;;;12.70;89.10;;;;;;10055862;28;20029;-67
2022/01/03 19:14:38;;;;;;;2.88;1.38;;;12.70;89.10;;;;;;10072259;28;20058;-67
2022/01/03 19:19:29;;;;;;;4.38;1.25;;;12.60;89.30;;;;;;10071721;28;20085;-70
2022/01/03 19:24:20;;;;;;;4.20;1.42;;;12.60;89.40;;;;;;10070800;28;20022;-68
2022/01/03 19:29:11;;;;;;;1.52;0.85;;;12.60;89.50;;;;;;10071352;28;20026;-71
2022/01/03 19:39:11;;;;;;;4.28;0.95;;;12.50;90.00;;;;;;10068960;28;20264;-68
2022/01/03 19:44:03;;;;;;;3.50;1.08;;;12.40;89.90;;;;;;10069474;28;20071;-69
2022/01/03 19:48:54;;;;;;;1.52;0.82;;;12.50;89.80;;;;;;10067757;28;20022;-68
2022/01/03 19:53:47;;;;;;;4.25;1.20;;;12.40;89.90;;;;;;10072032;28;20037;-69
2022/01/03 19:58:38;;;;;;;1.52;0.70;;;12.40;90.00;;;;;;10075154;28;20404;-68
2022/01/03 20:03:29;;;;;;;2.53;1.30;;;12.50;90.00;;;;;;10073597;28;20236;-68
2022/01/03 20:08:20;;;;;;;2.28;1.20;;;12.40;90.00;;;;;;10052812;28;20107;-69
2022/01/03 20:13:11;;;;;;;3.00;1.05;;;12.40;90.10;;;;;;10067268;28;20111;-69
2022/01/03 20:18:03;;;;;;;2.35;1.17;;;12.30;90.10;;;;;;10071551;28;20041;-69
2022/01/03 20:22:54;;;;;;;3.03;1.30;;;12.30;90.30;;;;;;10054952;28;20033;-68
2022/01/03 20:27:45;;;;;;;2.28;0.98;;;12.30;90.30;;;;;;10052399;28;20192;-71
2022/01/03 20:32:38;;;;;;;3.22;1.13;;;12.40;90.50;;;;;;10054507;28;20275;-70
2022/01/03 20:37:29;;;;;;;3.35;1.20;;;12.40;90.50;;;;;;10070793;28;20283;-70
2022/01/03 20:42:20;;;;;;;1.55;0.80;;;12.30;90.60;;;;;;10056708;28;20088;-69
2022/01/03 20:47:10;;;;;;;2.17;1.00;;;12.30;90.70;;;;;;10052625;28;20025;-71
2022/01/03 20:52:02;;;;;;;3.65;1.13;;;12.30;90.80;;;;;;10068220;28;20037;-69
2022/01/03 20:56:54;;;;;;;1.67;1.00;;;12.20;90.90;;;;;;10048160;28;20049;-69
2022/01/03 21:01:45;;;;;;;2.55;1.10;;;12.20;91.00;;;;;;10060868;28;20033;-68
2022/01/03 21:06:39;;;;;;;2.72;0.98;;;12.30;91.00;;;;;;10040449;28;20045;-66
2022/01/03 21:11:30;;;;;;;1.85;1.10;;;12.20;91.30;;;;;;10061559;28;20024;-67
2022/01/03 21:16:20;;;;;;;3.63;1.20;;;12.10;91.20;;;;;;10057054;28;20041;-68
2022/01/03 21:21:12;;;;;;;1.38;0.93;;;12.20;91.40;;;;;;10056895;28;20374;-65
2022/01/03 21:26:03;;;;;;;5.82;1.42;;;12.10;91.40;;;;;;10060751;28;20159;-65
2022/01/03 21:30:54;;;;;;;2.38;1.52;;;12.10;91.50;;;;;;10051848;28;20037;-65
2022/01/03 21:35:46;;;;;;;2.33;1.17;;;12.10;91.60;;;;;;10059497;28;20048;-66
2022/01/03 21:40:37;;;;;;;5.50;1.33;;;12.10;91.60;;;;;;10059370;28;20210;-65
2022/01/03 21:45:27;;;;;;;2.60;0.88;;;12.10;91.70;;;;;;10058485;28;20061;-65
2022/01/03 21:50:19;;;;;;;3.15;1.02;;;12.10;91.70;;;;;;10063020;28;20044;-65
2022/01/03 21:55:10;;;;;;;1.98;0.80;;;12.10;91.80;;;;;;10055515;28;20128;-65
2022/01/03 22:00:02;;;;;;;2.92;1.10;;;12.10;91.80;;;;;;10046740;28;20132;-64
2022/01/03 22:04:52;;;;;;;1.58;0.88;;;12.10;92.00;;;;;;10056561;28;20036;-64
2022/01/03 22:09:43;;;;;;;2.45;0.90;;;12.10;92.10;;;;;;10038718;28;20132;-67
2022/01/03 22:14:33;;;;;;;2.42;0.80;;;12.10;92.20;;;;;;10043116;28;20404;-65
2022/01/03 22:19:24;;;;;;;2.15;0.98;;;12.10;92.10;;;;;;10056562;28;20029;-65
2022/01/03 22:24:15;;;;;;;0.85;0.65;;;12.10;92.20;;;;;;10049056;28;20121;-64
2022/01/03 22:29:05;;;;;;;2.70;1.02;;;12.10;92.30;;;;;;10047795;28;20044;-65
2022/01/03 22:33:56;;;;;;;5.60;1.42;;;12.10;92.30;;;;;;10046967;28;20053;-67
2022/01/03 22:38:48;;;;;;;1.65;0.90;;;12.10;92.20;;;;;;10054023;28;20049;-66
2022/01/03 22:43:40;;;;;;;1.70;0.90;;;12.10;92.30;;;;;;10051611;28;20032;-64
2022/01/03 22:48:31;;;;;;;2.72;1.25;;;12.20;92.40;;;;;;10056959;28;20083;-65
2022/01/03 22:53:22;;;;;;;1.85;1.27;;;12.20;92.30;;;;;;10049491;28;20704;-65
2022/01/03 22:58:12;;;;;;;1.65;0.80;;;12.20;92.40;;;;;;10048432;28;20113;-65
2022/01/03 23:03:03;;;;;;;1.13;0.80;;;12.20;92.40;;;;;;10049451;28;20037;-66
2022/01/03 23:07:54;;;;;;;1.95;0.70;;;12.20;92.40;;;;;;10055416;28;20113;-65
2022/01/03 23:12:44;;;;;;;1.85;0.80;;;12.30;92.40;;;;;;10046670;28;20037;-65
2022/01/03 23:17:35;;;;;;;1.23;0.68;;;12.20;92.50;;;;;;10050994;28;20519;-65
2022/01/03 23:22:26;;;;;;;1.33;0.77;;;12.20;92.50;;;;;;10050855;28;20116;-65
2022/01/03 23:27:17;;;;;;;1.20;0.75;;;12.30;92.50;;;;;;10052111;28;20036;-64
2022/01/03 23:32:09;;;;;;;1.88;1.05;;;12.30;92.50;;;;;;10047537;28;20025;-65
2022/01/03 23:37:02;;;;;;;2.47;0.95;;;12.30;92.50;;;;;;10052373;28;20396;-66
2022/01/03 23:41:53;;;;;;;2.83;0.98;;;12.30;92.50;;;;;;10033622;28;20111;-65
2022/01/03 23:46:44;;;;;;;1.15;0.80;;;12.40;92.50;;;;;;10051556;28;20030;-65
2022/01/03 23:51:35;;;;;;;4.50;1.10;;;12.40;92.50;;;;;;10059448;28;20037;-65
2022/01/03 23:56:26;;;;;;;0.73;0.57;;;12.30;92.60;;;;;;10051546;28;20534;-65
